Wetterstation Vordersexau
Wetterdaten: Woche 16.02.15 - 22.02.15 (KW8)
Datum Zeit Temp. A. Feuchte A. Luftdruck Regen Wind Richtung Taupunkt Windchill Windben
16.02.2015 00:00 0,2 C 87 % 1014,4 hPa 0,0 l/m 0,0 km/h W -1,7 C 0,2 C 0,0 km/h
16.02.2015 01:00 0,1 C 87 % 1014,4 hPa 0,0 l/m 0,0 km/h W -1,8 C 0,1 C 0,0 km/h
16.02.2015 02:00 0,2 C 87 % 1014,7 hPa 0,0 l/m 0,0 km/h W -1,7 C 0,2 C 0,0 km/h
16.02.2015 03:00 0,3 C 87 % 1015,1 hPa 0,0 l/m 0,0 km/h W -1,6 C 0,3 C 0,0 km/h
16.02.2015 04:00 0,4 C 87 % 1015,5 hPa 0,0 l/m 0,0 km/h W -1,5 C 0,4 C 0,0 km/h
16.02.2015 05:00 0,5 C 87 % 1015,7 hPa 0,0 l/m 0,0 km/h W -1,4 C 0,5 C 0,0 km/h
16.02.2015 06:00 0,5 C 87 % 1016,1 hPa 0,0 l/m 0,0 km/h NW -1,4 C 0,5 C 0,0 km/h
16.02.2015 07:00 0,5 C 87 % 1016,6 hPa 0,0 l/m 0,0 km/h W -1,4 C 0,5 C 0,0 km/h
16.02.2015 08:00 0,8 C 87 % 1017,0 hPa 0,0 l/m 0,0 km/h S -1,1 C 0,8 C 0,0 km/h
16.02.2015 09:00 1,4 C 87 % 1016,9 hPa 0,0 l/m 3,9 km/h W-NW -0,5 C 1,4 C 2,2 km/h
16.02.2015 10:00 1,9 C 87 % 1016,8 hPa 0,0 l/m 0,0 km/h N -0,0 C 1,9 C 0,0 km/h
16.02.2015 11:00 2,1 C 87 % 1017,1 hPa 0,0 l/m 0,0 km/h N 0,2 C 2,1 C 0,0 km/h
16.02.2015 12:00 2,1 C 87 % 1017,0 hPa 0,0 l/m 0,0 km/h N 0,2 C 2,1 C 0,0 km/h
16.02.2015 13:00 2,4 C 87 % 1017,0 hPa 0,0 l/m 0,0 km/h W 0,5 C 2,4 C 0,0 km/h
16.02.2015 14:00 2,8 C 86 % 1016,6 hPa 0,0 l/m 0,0 km/h W 0,7 C 2,8 C 0,0 km/h
16.02.2015 15:00 2,2 C 86 % 1016,7 hPa 0,0 l/m 0,0 km/h W 0,1 C 2,2 C 0,0 km/h
16.02.2015 16:00 1,9 C 87 % 1016,7 hPa 0,0 l/m 0,0 km/h N-NO -0,0 C 1,9 C 0,0 km/h
16.02.2015 17:00 1,6 C 87 % 1017,2 hPa 0,0 l/m 0,0 km/h N-NO -0,3 C 1,6 C 0,0 km/h
16.02.2015 18:00 1,3 C 87 % 1017,9 hPa 0,0 l/m 0,0 km/h W-NW -0,6 C 1,3 C 0,0 km/h
16.02.2015 19:00 1,2 C 87 % 1018,4 hPa 0,0 l/m 0,0 km/h N -0,7 C 1,2 C 0,0 km/h
16.02.2015 20:00 1,0 C 87 % 1018,5 hPa 0,0 l/m 0,0 km/h W-NW -0,9 C 1,0 C 0,0 km/h
16.02.2015 21:00 0,8 C 87 % 1019,0 hPa 0,0 l/m 0,0 km/h W-NW -1,1 C 0,8 C 0,0 km/h
16.02.2015 22:00 0,7 C 87 % 1019,3 hPa 0,0 l/m 0,0 km/h N -1,2 C 0,7 C 0,0 km/h
16.02.2015 23:00 0,8 C 87 % 1019,8 hPa 0,0 l/m 0,0 km/h W-NW -1,1 C 0,8 C 0,0 km/h
17.02.2015 00:00 0,6 C 87 % 1020,5 hPa 0,0 l/m 0,0 km/h W-NW -1,3 C 0,6 C 0,0 km/h
17.02.2015 01:00 0,5 C 87 % 1021,0 hPa 0,0 l/m 0,0 km/h W-NW -1,4 C 0,5 C 0,0 km/h
17.02.2015 02:00 0,6 C 87 % 1021,5 hPa 0,0 l/m 0,0 km/h NW -1,3 C 0,6 C 0,0 km/h
17.02.2015 03:00 0,5 C 87 % 1022,2 hPa 0,0 l/m 0,0 km/h W-NW -1,4 C 0,5 C 0,0 km/h
17.02.2015 04:00 0,4 C 87 % 1022,9 hPa 0,0 l/m 0,0 km/h W-NW -1,5 C 0,4 C 0,0 km/h
17.02.2015 05:00 0,3 C 87 % 1024,0 hPa 0,0 l/m 0,0 km/h N-NO -1,6 C 0,3 C 0,0 km/h
17.02.2015 06:00 0,2 C 87 % 1024,6 hPa 0,0 l/m 1,9 km/h NW -1,7 C 0,2 C 1,1 km/h
17.02.2015 07:00 0,1 C 87 % 1026,0 hPa 0,0 l/m 0,0 km/h W -1,8 C 0,1 C 0,0 km/h
17.02.2015 08:00 0,3 C 87 % 1026,9 hPa 0,0 l/m 0,0 km/h NW -1,6 C 0,3 C 0,0 km/h
17.02.2015 09:00 0,8 C 87 % 1028,3 hPa 0,0 l/m 0,0 km/h W-NW -1,1 C 0,8 C 0,0 km/h
17.02.2015 10:00 1,0 C 87 % 1029,2 hPa 0,0 l/m 0,0 km/h SO -0,9 C 1,0 C 0,0 km/h
17.02.2015 11:00 1,6 C 88 % 1030,0 hPa 0,0 l/m 0,0 km/h W-NW -0,2 C 1,6 C 0,0 km/h
17.02.2015 12:00 2,6 C 87 % 1030,3 hPa 0,0 l/m 3,2 km/h N-NW 0,7 C 2,6 C 1,8 km/h
17.02.2015 13:00 3,4 C 84 % 1030,8 hPa 0,0 l/m 0,0 km/h N-NW 1,0 C 3,4 C 0,0 km/h
17.02.2015 14:00 3,4 C 83 % 1031,2 hPa 0,0 l/m 0,0 km/h N-NO 0,8 C 3,4 C 0,0 km/h
17.02.2015 15:00 2,6 C 84 % 1031,7 hPa 0,0 l/m 0,0 km/h W-NW 0,2 C 2,6 C 0,0 km/h
17.02.2015 16:00 2,1 C 85 % 1032,2 hPa 0,0 l/m 0,0 km/h N-NO -0,2 C 2,1 C 0,0 km/h
17.02.2015 17:00 1,6 C 85 % 1033,4 hPa 0,0 l/m 0,0 km/h N-NO -0,6 C 1,6 C 0,0 km/h
17.02.2015 18:00 1,4 C 86 % 1034,1 hPa 0,0 l/m 0,0 km/h N-NO -0,7 C 1,4 C 0,0 km/h
17.02.2015 19:00 1,3 C 86 % 1034,7 hPa 0,0 l/m 0,0 km/h NO -0,8 C 1,3 C 0,0 km/h
17.02.2015 20:00 1,2 C 86 % 1035,3 hPa 0,0 l/m 0,0 km/h NO -0,9 C 1,2 C 0,0 km/h
17.02.2015 21:00 1,2 C 86 % 1036,2 hPa 0,0 l/m 0,0 km/h NO -0,9 C 1,2 C 0,0 km/h
17.02.2015 22:00 1,1 C 86 % 1036,4 hPa 0,0 l/m 0,0 km/h NO -1,0 C 1,1 C 0,0 km/h
17.02.2015 23:00 1,0 C 87 % 1036,5 hPa 0,0 l/m 0,0 km/h NO -0,9 C 1,0 C 0,0 km/h
18.02.2015 00:00 0,9 C 87 % 1036,3 hPa 0,0 l/m 0,0 km/h NO -1,0 C 0,9 C 0,0 km/h
18.02.2015 01:00 0,9 C 87 % 1036,1 hPa 0,0 l/m 0,0 km/h NO -1,0 C 0,9 C 0,0 km/h
18.02.2015 02:00 0,8 C 87 % 1036,2 hPa 0,0 l/m 0,0 km/h NO -1,1 C 0,8 C 0,0 km/h
18.02.2015 03:00 0,8 C 87 % 1035,8 hPa 0,0 l/m 0,0 km/h NO -1,1 C 0,8 C 0,0 km/h
18.02.2015 04:00 0,6 C 87 % 1035,5 hPa 0,0 l/m 0,0 km/h NO -1,3 C 0,6 C 0,0 km/h
18.02.2015 05:00 0,8 C 87 % 1035,8 hPa 0,0 l/m 0,0 km/h NO -1,1 C 0,8 C 0,0 km/h
18.02.2015 06:00 0,8 C 87 % 1035,8 hPa 0,0 l/m 0,0 km/h NO -1,1 C 0,8 C 0,0 km/h
18.02.2015 07:00 1,1 C 87 % 1035,9 hPa 0,0 l/m 0,0 km/h N -0,8 C 1,1 C 0,0 km/h
18.02.2015 08:00 2,4 C 87 % 1036,2 hPa 0,0 l/m 0,0 km/h N 0,5 C 2,4 C 0,0 km/h
18.02.2015 09:00 4,1 C 84 % 1036,2 hPa 0,0 l/m 1,9 km/h NW 1,6 C 4,1 C 1,1 km/h
18.02.2015 10:00 10,3 C 71 % 1036,2 hPa 0,0 l/m 0,0 km/h W 5,3 C 10,3 C 0,0 km/h
18.02.2015 11:00 12,7 C 56 % 1036,1 hPa 0,0 l/m 0,0 km/h W 4,2 C 12,7 C 0,0 km/h
18.02.2015 12:00 11,8 C 56 % 1035,3 hPa 0,0 l/m 13,6 km/h N-NW 3,3 C 7,9 C 7,6 km/h
18.02.2015 13:00 10,9 C 56 % 1034,6 hPa 0,0 l/m 0,0 km/h W-NW 2,5 C 10,9 C 0,0 km/h
18.02.2015 14:00 9,9 C 57 % 1033,8 hPa 0,0 l/m 3,2 km/h W 1,8 C 9,9 C 1,8 km/h
18.02.2015 15:00 10,2 C 57 % 1033,7 hPa 0,0 l/m 5,2 km/h NW 2,1 C 10,2 C 2,9 km/h
18.02.2015 16:00 5,4 C 69 % 1033,5 hPa 0,0 l/m 0,0 km/h NW 0,2 C 5,4 C 0,0 km/h
18.02.2015 17:00 4,1 C 75 % 1033,4 hPa 0,0 l/m 0,0 km/h W-NW 0,1 C 4,1 C 0,0 km/h
18.02.2015 18:00 3,2 C 78 % 1033,8 hPa 0,0 l/m 0,0 km/h W-NW -0,3 C 3,2 C 0,0 km/h
18.02.2015 19:00 2,4 C 81 % 1034,1 hPa 0,0 l/m 0,0 km/h W -0,5 C 2,4 C 0,0 km/h
18.02.2015 20:00 1,7 C 83 % 1034,2 hPa 0,0 l/m 0,0 km/h W -0,9 C 1,7 C 0,0 km/h
18.02.2015 21:00 1,9 C 83 % 1034,3 hPa 0,0 l/m 0,0 km/h W -0,7 C 1,9 C 0,0 km/h
18.02.2015 22:00 1,8 C 83 % 1033,9 hPa 0,0 l/m 0,0 km/h W -0,8 C 1,8 C 0,0 km/h
18.02.2015 23:00 1,5 C 82 % 1034,0 hPa 0,0 l/m 0,0 km/h W -1,2 C 1,5 C 0,0 km/h
19.02.2015 00:00 1,3 C 83 % 1033,7 hPa 0,0 l/m 0,0 km/h W -1,3 C 1,3 C 0,0 km/h
19.02.2015 01:00 1,3 C 83 % 1033,0 hPa 0,0 l/m 0,0 km/h SO -1,3 C 1,3 C 0,0 km/h
19.02.2015 02:00 1,1 C 80 % 1032,5 hPa 0,0 l/m 0,0 km/h SO -2,0 C 1,1 C 0,0 km/h
19.02.2015 03:00 0,5 C 80 % 1031,8 hPa 0,0 l/m 0,0 km/h SO -2,5 C 0,5 C 0,0 km/h
19.02.2015 04:00 -0,1 C 81 % 1031,3 hPa 0,0 l/m 0,0 km/h O-NO -3,0 C -0,1 C 0,0 km/h
19.02.2015 05:00 -0,2 C 82 % 1030,8 hPa 0,0 l/m 0,0 km/h SO -2,9 C -0,2 C 0,0 km/h
19.02.2015 06:00 0,0 C 83 % 1030,5 hPa 0,0 l/m 0,0 km/h SO -2,5 C 0,0 C 0,0 km/h
19.02.2015 07:00 0,1 C 83 % 1030,8 hPa 0,0 l/m 0,0 km/h SO -2,4 C 0,1 C 0,0 km/h
19.02.2015 08:00 1,1 C 81 % 1030,7 hPa 0,0 l/m 0,0 km/h SO -1,8 C 1,1 C 0,0 km/h
19.02.2015 09:00 2,4 C 78 % 1030,8 hPa 0,0 l/m 0,0 km/h SO -1,0 C 2,4 C 0,0 km/h
19.02.2015 10:00 3,8 C 75 % 1030,7 hPa 0,0 l/m 0,0 km/h W -0,2 C 3,8 C 0,0 km/h
19.02.2015 11:00 4,5 C 72 % 1030,4 hPa 0,0 l/m 0,0 km/h W -0,1 C 4,5 C 0,0 km/h
19.02.2015 12:00 8,3 C 62 % 1029,2 hPa 0,0 l/m 1,3 km/h W-NW 1,5 C 8,3 C 0,7 km/h
19.02.2015 13:00 9,1 C 62 % 1028,1 hPa 0,0 l/m 0,0 km/h W 2,2 C 9,1 C 0,0 km/h
19.02.2015 14:00 10,5 C 58 % 1026,8 hPa 0,0 l/m 7,1 km/h W 2,6 C 10,0 C 4,0 km/h
19.02.2015 15:00 12,4 C 53 % 1025,9 hPa 0,0 l/m 1,3 km/h NW 3,1 C 12,4 C 0,7 km/h
19.02.2015 16:00 11,9 C 53 % 1025,3 hPa 0,0 l/m 0,0 km/h N-NO 2,6 C 11,9 C 0,0 km/h
19.02.2015 17:00 5,6 C 62 % 1024,9 hPa 0,0 l/m 0,0 km/h O-SO -1,1 C 5,6 C 0,0 km/h
19.02.2015 18:00 0,9 C 76 % 1024,4 hPa 0,0 l/m 0,0 km/h O-NO -2,8 C 0,9 C 0,0 km/h
19.02.2015 19:00 -0,5 C 81 % 1023,9 hPa 0,0 l/m 0,0 km/h O -3,3 C -0,5 C 0,0 km/h
19.02.2015 20:00 -1,4 C 84 % 1024,0 hPa 0,0 l/m 0,0 km/h O -3,7 C -1,4 C 0,0 km/h
19.02.2015 21:00 -2,1 C 85 % 1024,0 hPa 0,0 l/m 0,0 km/h SO -4,3 C -2,1 C 0,0 km/h
19.02.2015 22:00 -1,7 C 86 % 1023,2 hPa 0,0 l/m 0,0 km/h O-SO -3,7 C -1,7 C 0,0 km/h
19.02.2015 23:00 -2,7 C 86 % 1022,8 hPa 0,0 l/m 0,0 km/h O-SO -4,7 C -2,7 C 0,0 km/h
20.02.2015 00:00 -2,7 C 86 % 1022,2 hPa 0,0 l/m 0,0 km/h O -4,7 C -2,7 C 0,0 km/h
20.02.2015 01:00 -2,4 C 87 % 1021,4 hPa 0,0 l/m 0,0 km/h O-NO -4,3 C -2,4 C 0,0 km/h
20.02.2015 02:00 -2,9 C 87 % 1021,0 hPa 0,0 l/m 0,0 km/h O-SO -4,8 C -2,9 C 0,0 km/h
20.02.2015 03:00 -2,7 C 87 % 1020,2 hPa 0,0 l/m 0,0 km/h SO -4,6 C -2,7 C 0,0 km/h
20.02.2015 04:00 -2,7 C 87 % 1019,4 hPa 0,0 l/m 0,0 km/h O-SO -4,6 C -2,7 C 0,0 km/h
20.02.2015 05:00 -2,4 C 87 % 1018,8 hPa 0,0 l/m 0,0 km/h O-NO -4,3 C -2,4 C 0,0 km/h
20.02.2015 06:00 -2,1 C 87 % 1018,4 hPa 0,0 l/m 0,0 km/h SO -4,0 C -2,1 C 0,0 km/h
20.02.2015 07:00 -2,1 C 87 % 1018,2 hPa 0,0 l/m 0,0 km/h O-SO -4,0 C -2,1 C 0,0 km/h
20.02.2015 08:00 1,4 C 85 % 1017,9 hPa 0,0 l/m 0,0 km/h SO -0,8 C 1,4 C 0,0 km/h
20.02.2015 09:00 10,9 C 77 % 1016,9 hPa 0,0 l/m 0,0 km/h W-SW 7,0 C 10,9 C 0,0 km/h
20.02.2015 10:00 14,9 C 54 % 1016,6 hPa 0,0 l/m 11,7 km/h W-SW 5,7 C 12,3 C 6,5 km/h
20.02.2015 11:00 15,3 C 45 % 1015,7 hPa 0,0 l/m 31,1 km/h S 3,4 C 7,9 C 17,3 km/h
20.02.2015 12:00 15,2 C 42 % 1014,4 hPa 0,0 l/m 24,0 km/h W 2,4 C 9,1 C 13,3 km/h
20.02.2015 13:00 15,2 C 41 % 1013,0 hPa 0,0 l/m 18,8 km/h W 2,0 C 10,3 C 10,4 km/h
20.02.2015 14:00 16,2 C 41 % 1011,3 hPa 0,0 l/m 9,1 km/h S-SW 2,9 C 14,8 C 5,0 km/h
20.02.2015 15:00 18,0 C 36 % 1010,0 hPa 0,0 l/m 8,4 km/h W 2,7 C 17,1 C 4,7 km/h
20.02.2015 16:00 17,7 C 39 % 1008,3 hPa 0,0 l/m 0,0 km/h S-SW 3,6 C 17,7 C 0,0 km/h
20.02.2015 17:00 11,3 C 43 % 1007,6 hPa 0,0 l/m 0,0 km/h NO -0,8 C 11,3 C 0,0 km/h
20.02.2015 18:00 5,6 C 63 % 1007,7 hPa 0,0 l/m 0,0 km/h O-NO -0,9 C 5,6 C 0,0 km/h
20.02.2015 19:00 3,6 C 67 % 1006,9 hPa 0,0 l/m 0,0 km/h O-NO -1,9 C 3,6 C 0,0 km/h
20.02.2015 20:00 2,0 C 72 % 1006,1 hPa 0,0 l/m 0,0 km/h NO -2,5 C 2,0 C 0,0 km/h
20.02.2015 21:00 1,1 C 73 % 1005,4 hPa 0,0 l/m 0,0 km/h N-NO -3,2 C 1,1 C 0,0 km/h
20.02.2015 22:00 0,9 C 74 % 1004,7 hPa 0,0 l/m 0,0 km/h N-NO -3,2 C 0,9 C 0,0 km/h
20.02.2015 23:00 -0,4 C 75 % 1004,2 hPa 0,0 l/m 0,0 km/h N-NO -4,3 C -0,4 C 0,0 km/h
21.02.2015 00:00 0,5 C 75 % 1003,4 hPa 0,0 l/m 0,0 km/h N-NO -3,4 C 0,5 C 0,0 km/h
21.02.2015 01:00 4,6 C 67 % 1002,8 hPa 0,0 l/m 1,9 km/h SW -1,0 C 4,6 C 1,1 km/h
21.02.2015 02:00 6,2 C 61 % 1002,1 hPa 0,0 l/m 0,0 km/h W-SW -0,7 C 6,2 C 0,0 km/h
21.02.2015 03:00 7,5 C 63 % 1001,2 hPa 0,0 l/m 25,9 km/h S-SW 0,9 C -1,8 C 14,4 km/h
21.02.2015 04:00 6,3 C 71 % 1000,4 hPa 0,0 l/m 18,8 km/h S-SO 1,4 C -1,0 C 10,4 km/h
21.02.2015 05:00 5,9 C 77 % 999,3 hPa 0,0 l/m 1,9 km/h SW 2,2 C 5,9 C 1,1 km/h
21.02.2015 06:00 5,3 C 81 % 999,2 hPa 0,0 l/m 1,9 km/h S-SW 2,3 C 5,3 C 1,1 km/h
21.02.2015 07:00 4,8 C 83 % 998,9 hPa 0,8 l/m 0,0 km/h SW 2,2 C 4,8 C 0,0 km/h
21.02.2015 08:00 4,9 C 84 % 999,2 hPa 0,8 l/m 0,0 km/h S-SO 2,4 C 4,9 C 0,0 km/h
21.02.2015 09:00 5,6 C 85 % 998,8 hPa 0,8 l/m 6,5 km/h W-SW 3,3 C 5,5 C 3,6 km/h
21.02.2015 10:00 5,4 C 85 % 999,2 hPa 0,0 l/m 24,0 km/h S-SW 3,1 C -4,1 C 13,3 km/h
21.02.2015 11:00 4,5 C 85 % 999,8 hPa 0,8 l/m 38,2 km/h S 2,2 C -8,9 C 21,2 km/h
21.02.2015 12:00 3,9 C 86 % 999,6 hPa 0,8 l/m 13,0 km/h S-SW 1,8 C -1,1 C 7,2 km/h
21.02.2015 13:00 4,6 C 86 % 999,2 hPa 0,8 l/m 7,1 km/h W 2,5 C 4,0 C 4,0 km/h
21.02.2015 14:00 5,4 C 84 % 999,5 hPa 0,0 l/m 3,9 km/h W 2,9 C 5,4 C 2,2 km/h
21.02.2015 15:00 4,6 C 84 % 999,6 hPa 0,0 l/m 8,4 km/h W-NW 2,1 C 2,9 C 4,7 km/h
21.02.2015 16:00 4,4 C 85 % 999,8 hPa 0,0 l/m 0,0 km/h W-SW 2,1 C 4,4 C 0,0 km/h
21.02.2015 17:00 3,8 C 86 % 999,9 hPa 0,0 l/m 0,0 km/h S-SW 1,7 C 3,8 C 0,0 km/h
21.02.2015 18:00 3,0 C 87 % 1000,4 hPa 0,0 l/m 0,0 km/h S-SW 1,1 C 3,0 C 0,0 km/h
21.02.2015 19:00 3,1 C 87 % 1000,9 hPa 0,0 l/m 0,0 km/h SO 1,2 C 3,1 C 0,0 km/h
21.02.2015 20:00 3,1 C 87 % 1000,9 hPa 0,0 l/m 0,0 km/h SO 1,2 C 3,1 C 0,0 km/h
21.02.2015 21:00 2,9 C 87 % 1001,5 hPa 0,0 l/m 0,0 km/h SO 1,0 C 2,9 C 0,0 km/h
21.02.2015 22:00 2,8 C 87 % 1001,8 hPa 0,0 l/m 0,0 km/h SO 0,9 C 2,8 C 0,0 km/h
21.02.2015 23:00 2,6 C 87 % 1001,8 hPa 0,0 l/m 0,0 km/h SO 0,7 C 2,6 C 0,0 km/h
22.02.2015 00:00 2,2 C 87 % 1002,5 hPa 0,0 l/m 0,0 km/h SO 0,3 C 2,2 C 0,0 km/h
22.02.2015 01:00 1,9 C 87 % 1002,8 hPa 0,0 l/m 0,0 km/h SO -0,0 C 1,9 C 0,0 km/h
22.02.2015 02:00 2,1 C 87 % 1003,1 hPa 0,0 l/m 0,0 km/h SO 0,2 C 2,1 C 0,0 km/h
22.02.2015 03:00 1,7 C 87 % 1003,8 hPa 0,0 l/m 0,0 km/h SO -0,2 C 1,7 C 0,0 km/h
22.02.2015 04:00 1,5 C 87 % 1004,5 hPa 0,0 l/m 0,0 km/h SO -0,4 C 1,5 C 0,0 km/h
22.02.2015 05:00 1,6 C 87 % 1005,0 hPa 0,0 l/m 0,0 km/h SO -0,3 C 1,6 C 0,0 km/h
22.02.2015 06:00 1,8 C 87 % 1005,8 hPa 0,0 l/m 0,0 km/h SO -0,1 C 1,8 C 0,0 km/h
22.02.2015 07:00 1,9 C 87 % 1006,7 hPa 0,0 l/m 0,0 km/h SO -0,0 C 1,9 C 0,0 km/h
22.02.2015 08:00 3,2 C 87 % 1007,5 hPa 0,0 l/m 0,0 km/h W 1,2 C 3,2 C 0,0 km/h
22.02.2015 09:00 4,1 C 87 % 1008,2 hPa 0,0 l/m 0,0 km/h N-NO 2,1 C 4,1 C 0,0 km/h
22.02.2015 10:00 4,8 C 86 % 1008,8 hPa 0,0 l/m 0,0 km/h N-NO 2,7 C 4,8 C 0,0 km/h
22.02.2015 11:00 4,8 C 84 % 1009,3 hPa 0,0 l/m 0,0 km/h N-NO 2,3 C 4,8 C 0,0 km/h
22.02.2015 12:00 5,3 C 81 % 1009,2 hPa 0,0 l/m 0,0 km/h N-NO 2,3 C 5,3 C 0,0 km/h
22.02.2015 13:00 6,1 C 80 % 1009,0 hPa 0,0 l/m 0,0 km/h N-NO 2,9 C 6,1 C 0,0 km/h
22.02.2015 14:00 5,6 C 79 % 1009,0 hPa 0,0 l/m 0,0 km/h N-NO 2,3 C 5,6 C 0,0 km/h
22.02.2015 15:00 5,8 C 79 % 1009,0 hPa 0,0 l/m 0,0 km/h SO 2,4 C 5,8 C 0,0 km/h
22.02.2015 16:00 5,3 C 79 % 1008,7 hPa 0,0 l/m 0,0 km/h SO 2,0 C 5,3 C 0,0 km/h
22.02.2015 17:00 4,1 C 80 % 1009,2 hPa 0,0 l/m 0,0 km/h SO 1,0 C 4,1 C 0,0 km/h
22.02.2015 18:00 3,1 C 83 % 1009,4 hPa 0,0 l/m 0,0 km/h SO 0,5 C 3,1 C 0,0 km/h
22.02.2015 19:00 2,7 C 85 % 1009,0 hPa 0,0 l/m 1,3 km/h SO 0,4 C 2,7 C 0,7 km/h
22.02.2015 20:00 1,9 C 86 % 1009,3 hPa 0,0 l/m 0,0 km/h SO -0,2 C 1,9 C 0,0 km/h
22.02.2015 21:00 2,2 C 87 % 1008,7 hPa 0,0 l/m 0,0 km/h O-SO 0,3 C 2,2 C 0,0 km/h
22.02.2015 22:00 1,1 C 87 % 1007,9 hPa 0,0 l/m 0,0 km/h O-SO -0,8 C 1,1 C 0,0 km/h
22.02.2015 23:00 -0,4 C 87 % 1007,0 hPa 0,0 l/m 0,0 km/h O-NO -2,3 C -0,4 C 0,0 km/h
Min-Datum _ 20.02.15 20.02.15 21.02.15 - 16.02.15 - 20.02.15 21.02.15 16.02.15
_ Min-Zeit 02:53 15:53 09:53 - 00:53 - 02:53 11:53 00:53
Minimum _ -2,9 C 36 % 998,8 hPa - 0,0 km/h - -4,8 C -8,9 C 0,0 km/h
Max-Datum _ 20.02.15 17.02.15 17.02.15 21.02.15 21.02.15 - 20.02.15 20.02.15 21.02.15
_ Max-Zeit 15:53 11:53 23:53 07:53 11:53 - 09:53 16:53 11:53
Maximum _ 18,0 C 88 % 1036,5 hPa 0,8 l/m 38,2 km/h
S
- 7,0 C 17,7 C 21,2 km/h
S
Durchschnitt _ 3,2 C 80 % 1018,7 hPa #4,7 l/m 1,8 km/h SO -0,2 C 2,7 C 1,0 km/h
www.sexauwetter.de